Flugplatz Obermehler-Schlotheim

Für EDCO sind keine METAR/TAF Berichte vorhanden.
Es werden die Flugwettermeldungen vom Flugplatz Erfurt in 39 km Entfernung angezeigt.

Bericht für EDDE

vom 27.09. um 00:20 UTC

Wind 7 kt aus 190°

Sichtweite 10 km oder mehr

gering bewölkt in 4800 ft

Temperatur 6.0°C

Taupunkt 4.0°C

Luftfeuchtigkeit 87%

Luftdruck 997 hPa

EDDE 270020Z 19007KT 9999 FEW048 06/04 Q0997

Prognose für EDDE

vom 26.09. um 23:00 UTC

Zwischen 00:00 UTC und 00:00 UTC

Wind 10 kt aus 220°

Sichtweite 8000 m

aufgebrochene Bewölkung in 3000 ft

TAF EDDE 262300Z 2700/2724 22010KT 8000 BKN030
Impressum